sensor_id;sensor_type;location;lat;lon;timestamp;pressure;altitude;pressure_sealevel;temperature;humidity
74334;BME280;62753;40.394;-80.022;2023-03-13T00:00:16;96654.04;;;8.74;33.84
74334;BME280;62753;40.394;-80.022;2023-03-13T00:02:40;96653.60;;;8.28;33.59
74334;BME280;62753;40.394;-80.022;2023-03-13T00:05:06;96651.50;;;8.65;33.81
74334;BME280;62753;40.394;-80.022;2023-03-13T00:07:31;96654.37;;;7.81;34.77
74334;BME280;62753;40.394;-80.022;2023-03-13T00:09:56;96656.36;;;7.70;35.33
74334;BME280;62753;40.394;-80.022;2023-03-13T00:12:22;96662.25;;;7.83;35.04
74334;BME280;62753;40.394;-80.022;2023-03-13T00:14:47;96663.87;;;8.30;34.48
74334;BME280;62753;40.394;-80.022;2023-03-13T00:17:13;96667.80;;;8.42;33.62
74334;BME280;62753;40.394;-80.022;2023-03-13T00:19:38;96668.59;;;8.71;33.80
74334;BME280;62753;40.394;-80.022;2023-03-13T00:22:04;96666.64;;;8.73;33.33
74334;BME280;62753;40.394;-80.022;2023-03-13T00:24:29;96668.08;;;8.97;32.72
74334;BME280;62753;40.394;-80.022;2023-03-13T00:26:56;96671.19;;;9.33;32.73
74334;BME280;62753;40.394;-80.022;2023-03-13T00:29:21;96673.53;;;9.61;32.32
74334;BME280;62753;40.394;-80.022;2023-03-13T00:31:47;96675.33;;;9.42;32.38
74334;BME280;62753;40.394;-80.022;2023-03-13T00:34:12;96682.48;;;9.43;32.20
74334;BME280;62753;40.394;-80.022;2023-03-13T00:36:38;96688.68;;;9.59;32.25
74334;BME280;62753;40.394;-80.022;2023-03-13T00:39:04;96694.13;;;9.51;32.03
74334;BME280;62753;40.394;-80.022;2023-03-13T00:41:30;96693.20;;;9.42;31.90
74334;BME280;62753;40.394;-80.022;2023-03-13T00:43:53;96696.84;;;9.76;31.54
74334;BME280;62753;40.394;-80.022;2023-03-13T00:46:21;96696.65;;;10.68;30.98
74334;BME280;62753;40.394;-80.022;2023-03-13T00:48:46;96700.25;;;10.40;30.37
74334;BME280;62753;40.394;-80.022;2023-03-13T00:51:11;96698.67;;;10.54;30.67
74334;BME280;62753;40.394;-80.022;2023-03-13T00:53:36;96701.97;;;10.85;30.09
74334;BME280;62753;40.394;-80.022;2023-03-13T00:56:03;96703.08;;;10.70;30.80
74334;BME280;62753;40.394;-80.022;2023-03-13T00:58:30;96705.05;;;10.39;30.87
74334;BME280;62753;40.394;-80.022;2023-03-13T01:00:52;96710.46;;;9.58;31.71
74334;BME280;62753;40.394;-80.022;2023-03-13T01:03:17;96713.46;;;9.39;31.68
74334;BME280;62753;40.394;-80.022;2023-03-13T01:05:43;96717.71;;;10.37;30.82
74334;BME280;62753;40.394;-80.022;2023-03-13T01:08:08;96716.86;;;10.16;30.35
74334;BME280;62753;40.394;-80.022;2023-03-13T01:10:33;96722.33;;;10.36;30.02
74334;BME280;62753;40.394;-80.022;2023-03-13T01:12:58;96720.20;;;10.66;29.56
74334;BME280;62753;40.394;-80.022;2023-03-13T01:15:24;96722.02;;;10.87;29.09
74334;BME280;62753;40.394;-80.022;2023-03-13T01:17:50;96724.53;;;10.95;28.80
74334;BME280;62753;40.394;-80.022;2023-03-13T01:20:16;96729.97;;;11.37;28.94
74334;BME280;62753;40.394;-80.022;2023-03-13T01:22:41;96730.86;;;11.31;28.34
74334;BME280;62753;40.394;-80.022;2023-03-13T01:25:08;96730.04;;;11.41;28.55
74334;BME280;62753;40.394;-80.022;2023-03-13T01:27:32;96727.18;;;10.73;29.44
74334;BME280;62753;40.394;-80.022;2023-03-13T01:29:58;96720.82;;;9.90;30.32
74334;BME280;62753;40.394;-80.022;2023-03-13T01:32:24;96726.24;;;10.14;30.89
74334;BME280;62753;40.394;-80.022;2023-03-13T01:34:49;96725.64;;;10.00;30.97
74334;BME280;62753;40.394;-80.022;2023-03-13T01:37:15;96718.88;;;9.75;31.05
74334;BME280;62753;40.394;-80.022;2023-03-13T01:39:39;96714.24;;;9.62;31.93
74334;BME280;62753;40.394;-80.022;2023-03-13T01:42:05;96713.49;;;9.91;31.34
74334;BME280;62753;40.394;-80.022;2023-03-13T01:46:56;96718.16;;;10.28;31.01
74334;BME280;62753;40.394;-80.022;2023-03-13T01:49:23;96720.73;;;9.94;31.09
74334;BME280;62753;40.394;-80.022;2023-03-13T01:51:49;96724.95;;;10.48;30.66
74334;BME280;62753;40.394;-80.022;2023-03-13T01:54:17;96726.61;;;10.64;30.26
74334;BME280;62753;40.394;-80.022;2023-03-13T01:56:40;96724.56;;;10.49;30.52
74334;BME280;62753;40.394;-80.022;2023-03-13T01:59:07;96725.83;;;11.10;29.48
74334;BME280;62753;40.394;-80.022;2023-03-13T02:01:30;96725.40;;;10.89;30.46
74334;BME280;62753;40.394;-80.022;2023-03-13T02:03:55;96729.82;;;11.14;29.62
74334;BME280;62753;40.394;-80.022;2023-03-13T02:06:20;96731.79;;;11.79;29.34
74334;BME280;62753;40.394;-80.022;2023-03-13T02:08:50;96734.95;;;11.76;28.61
74334;BME280;62753;40.394;-80.022;2023-03-13T02:11:21;96731.55;;;11.49;28.96
74334;BME280;62753;40.394;-80.022;2023-03-13T02:13:36;96732.32;;;11.73;28.40
74334;BME280;62753;40.394;-80.022;2023-03-13T02:16:01;96729.02;;;11.39;28.90
74334;BME280;62753;40.394;-80.022;2023-03-13T02:18:27;96729.92;;;11.52;28.49
74334;BME280;62753;40.394;-80.022;2023-03-13T02:20:57;96729.07;;;11.63;28.14
74334;BME280;62753;40.394;-80.022;2023-03-13T02:23:23;96724.39;;;11.95;27.91
74334;BME280;62753;40.394;-80.022;2023-03-13T02:25:44;96717.51;;;11.20;29.08
74334;BME280;62753;40.394;-80.022;2023-03-13T02:28:11;96719.70;;;11.42;29.03
74334;BME280;62753;40.394;-80.022;2023-03-13T02:30:33;96717.86;;;10.74;29.80
74334;BME280;62753;40.394;-80.022;2023-03-13T02:32:59;96716.40;;;10.23;30.32
74334;BME280;62753;40.394;-80.022;2023-03-13T02:35:24;96720.98;;;10.74;30.50
74334;BME280;62753;40.394;-80.022;2023-03-13T02:37:51;96719.60;;;10.59;30.23
74334;BME280;62753;40.394;-80.022;2023-03-13T02:40:17;96717.92;;;9.68;32.30
74334;BME280;62753;40.394;-80.022;2023-03-13T02:42:42;96717.90;;;10.32;31.04
74334;BME280;62753;40.394;-80.022;2023-03-13T02:45:06;96722.28;;;9.87;32.01
74334;BME280;62753;40.394;-80.022;2023-03-13T02:47:31;96720.78;;;9.58;32.98
74334;BME280;62753;40.394;-80.022;2023-03-13T02:49:56;96718.97;;;9.89;31.97
74334;BME280;62753;40.394;-80.022;2023-03-13T02:52:25;96715.50;;;9.82;32.44
74334;BME280;62753;40.394;-80.022;2023-03-13T02:54:51;96711.94;;;9.18;33.93
74334;BME280;62753;40.394;-80.022;2023-03-13T02:57:13;96715.26;;;8.34;35.01
74334;BME280;62753;40.394;-80.022;2023-03-13T02:59:39;96712.09;;;8.33;35.50
74334;BME280;62753;40.394;-80.022;2023-03-13T03:02:04;96716.18;;;7.88;36.19
74334;BME280;62753;40.394;-80.022;2023-03-13T03:04:29;96712.40;;;6.89;38.44
74334;BME280;62753;40.394;-80.022;2023-03-13T03:06:54;96712.18;;;6.66;39.46
74334;BME280;62753;40.394;-80.022;2023-03-13T03:09:20;96714.13;;;6.73;39.27
74334;BME280;62753;40.394;-80.022;2023-03-13T03:11:46;96712.69;;;7.66;37.97
74334;BME280;62753;40.394;-80.022;2023-03-13T03:14:11;96710.56;;;7.89;37.15
74334;BME280;62753;40.394;-80.022;2023-03-13T03:16:36;96711.72;;;7.90;37.00
74334;BME280;62753;40.394;-80.022;2023-03-13T03:19:02;96709.73;;;7.42;38.16
74334;BME280;62753;40.394;-80.022;2023-03-13T03:21:27;96709.13;;;7.24;37.99
74334;BME280;62753;40.394;-80.022;2023-03-13T03:23:53;96708.30;;;7.72;36.80
74334;BME280;62753;40.394;-80.022;2023-03-13T03:26:19;96699.49;;;7.57;38.00
74334;BME280;62753;40.394;-80.022;2023-03-13T03:28:43;96701.19;;;7.43;38.06
74334;BME280;62753;40.394;-80.022;2023-03-13T03:31:11;96707.90;;;8.20;36.51
74334;BME280;62753;40.394;-80.022;2023-03-13T03:33:34;96710.47;;;7.99;36.44
74334;BME280;62753;40.394;-80.022;2023-03-13T03:36:00;96707.53;;;8.68;35.73
74334;BME280;62753;40.394;-80.022;2023-03-13T03:38:25;96703.95;;;7.73;36.86
74334;BME280;62753;40.394;-80.022;2023-03-13T03:40:50;96704.01;;;8.32;35.94
74334;BME280;62753;40.394;-80.022;2023-03-13T03:43:15;96704.02;;;8.81;35.54
74334;BME280;62753;40.394;-80.022;2023-03-13T03:45:41;96706.35;;;7.87;36.60
74334;BME280;62753;40.394;-80.022;2023-03-13T03:48:06;96707.83;;;8.16;36.14
74334;BME280;62753;40.394;-80.022;2023-03-13T03:50:32;96709.72;;;8.66;35.98
74334;BME280;62753;40.394;-80.022;2023-03-13T03:52:57;96710.65;;;8.79;34.62
74334;BME280;62753;40.394;-80.022;2023-03-13T03:55:22;96711.13;;;9.41;34.01
74334;BME280;62753;40.394;-80.022;2023-03-13T03:57:48;96714.14;;;10.54;32.70
74334;BME280;62753;40.394;-80.022;2023-03-13T04:00:14;96715.96;;;10.30;32.34
74334;BME280;62753;40.394;-80.022;2023-03-13T04:02:40;96717.50;;;10.51;31.84
74334;BME280;62753;40.394;-80.022;2023-03-13T04:05:05;96723.30;;;9.64;33.19
74334;BME280;62753;40.394;-80.022;2023-03-13T04:07:30;96725.69;;;9.29;34.15
74334;BME280;62753;40.394;-80.022;2023-03-13T04:09:55;96730.51;;;8.42;36.08
74334;BME280;62753;40.394;-80.022;2023-03-13T04:12:21;96727.77;;;8.54;35.89
74334;BME280;62753;40.394;-80.022;2023-03-13T04:14:46;96729.50;;;8.32;36.37
74334;BME280;62753;40.394;-80.022;2023-03-13T04:17:12;96728.35;;;8.45;35.81
74334;BME280;62753;40.394;-80.022;2023-03-13T04:19:37;96726.64;;;9.09;34.54
74334;BME280;62753;40.394;-80.022;2023-03-13T04:22:03;96730.75;;;9.58;34.36
74334;BME280;62753;40.394;-80.022;2023-03-13T04:24:28;96734.77;;;9.58;34.20
74334;BME280;62753;40.394;-80.022;2023-03-13T04:26:54;96732.46;;;9.26;34.48
74334;BME280;62753;40.394;-80.022;2023-03-13T04:29:20;96734.73;;;9.80;32.98
74334;BME280;62753;40.394;-80.022;2023-03-13T04:31:45;96731.44;;;9.80;33.68
74334;BME280;62753;40.394;-80.022;2023-03-13T04:34:10;96729.49;;;9.71;33.49
74334;BME280;62753;40.394;-80.022;2023-03-13T04:36:35;96724.85;;;9.35;33.81
74334;BME280;62753;40.394;-80.022;2023-03-13T04:39:01;96723.87;;;9.17;34.53
74334;BME280;62753;40.394;-80.022;2023-03-13T04:41:27;96730.43;;;9.10;34.77
74334;BME280;62753;40.394;-80.022;2023-03-13T04:43:52;96728.09;;;9.12;34.75
74334;BME280;62753;40.394;-80.022;2023-03-13T04:46:17;96732.13;;;8.71;34.93
74334;BME280;62753;40.394;-80.022;2023-03-13T04:48:43;96731.05;;;8.96;34.87
74334;BME280;62753;40.394;-80.022;2023-03-13T04:51:09;96729.88;;;9.71;33.49
74334;BME280;62753;40.394;-80.022;2023-03-13T04:53:34;96727.39;;;10.20;33.21
74334;BME280;62753;40.394;-80.022;2023-03-13T04:55:59;96726.52;;;10.39;32.78
74334;BME280;62753;40.394;-80.022;2023-03-13T04:58:27;96723.83;;;10.25;32.43
74334;BME280;62753;40.394;-80.022;2023-03-13T05:00:51;96725.69;;;10.71;31.49
74334;BME280;62753;40.394;-80.022;2023-03-13T05:03:16;96726.77;;;10.50;31.61
74334;BME280;62753;40.394;-80.022;2023-03-13T05:05:41;96726.79;;;11.29;30.76
74334;BME280;62753;40.394;-80.022;2023-03-13T05:08:06;96723.88;;;11.33;30.78
74334;BME280;62753;40.394;-80.022;2023-03-13T05:10:32;96729.26;;;11.24;30.67
74334;BME280;62753;40.394;-80.022;2023-03-13T05:12:58;96727.08;;;11.39;30.64
74334;BME280;62753;40.394;-80.022;2023-03-13T05:15:23;96726.58;;;11.44;30.36
74334;BME280;62753;40.394;-80.022;2023-03-13T05:17:48;96723.58;;;10.54;31.26
74334;BME280;62753;40.394;-80.022;2023-03-13T05:20:14;96722.93;;;10.54;31.36
74334;BME280;62753;40.394;-80.022;2023-03-13T05:22:39;96718.58;;;11.05;31.23
74334;BME280;62753;40.394;-80.022;2023-03-13T05:25:06;96717.24;;;10.87;31.16
74334;BME280;62753;40.394;-80.022;2023-03-13T05:27:31;96719.14;;;11.02;30.83
74334;BME280;62753;40.394;-80.022;2023-03-13T05:29:56;96717.24;;;11.44;30.39
74334;BME280;62753;40.394;-80.022;2023-03-13T05:32:21;96713.56;;;10.33;31.85
74334;BME280;62753;40.394;-80.022;2023-03-13T05:34:47;96711.35;;;10.85;30.91
74334;BME280;62753;40.394;-80.022;2023-03-13T05:37:13;96708.74;;;10.47;31.15
74334;BME280;62753;40.394;-80.022;2023-03-13T05:39:38;96709.86;;;11.09;30.90
74334;BME280;62753;40.394;-80.022;2023-03-13T05:42:04;96708.99;;;11.24;30.42
74334;BME280;62753;40.394;-80.022;2023-03-13T05:44:29;96706.86;;;11.55;30.01
74334;BME280;62753;40.394;-80.022;2023-03-13T05:46:55;96704.16;;;11.46;30.61
74334;BME280;62753;40.394;-80.022;2023-03-13T05:49:20;96704.56;;;11.49;30.39
74334;BME280;62753;40.394;-80.022;2023-03-13T05:51:46;96704.18;;;11.64;30.21
74334;BME280;62753;40.394;-80.022;2023-03-13T05:54:11;96708.07;;;11.20;30.39
74334;BME280;62753;40.394;-80.022;2023-03-13T05:56:37;96707.09;;;11.37;30.56
74334;BME280;62753;40.394;-80.022;2023-03-13T05:59:03;96707.04;;;11.37;30.54
74334;BME280;62753;40.394;-80.022;2023-03-13T06:01:28;96707.76;;;11.32;30.02
74334;BME280;62753;40.394;-80.022;2023-03-13T06:03:53;96704.66;;;11.65;29.97
74334;BME280;62753;40.394;-80.022;2023-03-13T06:06:19;96704.58;;;11.67;29.80
74334;BME280;62753;40.394;-80.022;2023-03-13T06:08:45;96700.68;;;11.16;30.49
74334;BME280;62753;40.394;-80.022;2023-03-13T06:11:10;96698.22;;;10.21;32.06
74334;BME280;62753;40.394;-80.022;2023-03-13T06:13:35;96698.74;;;11.18;30.67
74334;BME280;62753;40.394;-80.022;2023-03-13T06:16:00;96699.43;;;11.43;30.33
74334;BME280;62753;40.394;-80.022;2023-03-13T06:18:26;96703.44;;;10.47;30.90
74334;BME280;62753;40.394;-80.022;2023-03-13T06:20:56;96702.85;;;10.86;30.87
74334;BME280;62753;40.394;-80.022;2023-03-13T06:23:17;96701.42;;;11.00;30.49
74334;BME280;62753;40.394;-80.022;2023-03-13T06:25:46;96702.52;;;10.75;31.18
74334;BME280;62753;40.394;-80.022;2023-03-13T06:28:08;96700.42;;;10.91;31.48
74334;BME280;62753;40.394;-80.022;2023-03-13T06:30:33;96704.33;;;11.12;31.89
74334;BME280;62753;40.394;-80.022;2023-03-13T06:32:59;96706.09;;;10.50;31.39
74334;BME280;62753;40.394;-80.022;2023-03-13T06:35:24;96706.11;;;10.45;31.50
74334;BME280;62753;40.394;-80.022;2023-03-13T06:37:49;96708.30;;;11.06;30.89
74334;BME280;62753;40.394;-80.022;2023-03-13T06:40:15;96708.04;;;10.96;31.03
74334;BME280;62753;40.394;-80.022;2023-03-13T06:42:41;96707.97;;;11.19;30.51
74334;BME280;62753;40.394;-80.022;2023-03-13T06:45:07;96710.18;;;11.13;31.18
74334;BME280;62753;40.394;-80.022;2023-03-13T06:47:32;96712.02;;;10.77;30.94
74334;BME280;62753;40.394;-80.022;2023-03-13T06:49:57;96714.87;;;9.94;31.50
74334;BME280;62753;40.394;-80.022;2023-03-13T06:52:22;96717.48;;;9.91;32.58
74334;BME280;62753;40.394;-80.022;2023-03-13T06:54:48;96718.91;;;9.65;32.49
74334;BME280;62753;40.394;-80.022;2023-03-13T06:57:13;96718.92;;;9.81;32.38
74334;BME280;62753;40.394;-80.022;2023-03-13T06:59:39;96717.57;;;9.90;32.72
74334;BME280;62753;40.394;-80.022;2023-03-13T07:02:05;96715.06;;;9.74;32.41
74334;BME280;62753;40.394;-80.022;2023-03-13T07:04:30;96713.03;;;9.67;32.65
74334;BME280;62753;40.394;-80.022;2023-03-13T07:06:55;96711.41;;;9.48;32.67
74334;BME280;62753;40.394;-80.022;2023-03-13T07:09:21;96709.89;;;9.29;33.80
74334;BME280;62753;40.394;-80.022;2023-03-13T07:11:47;96710.34;;;9.46;33.59
74334;BME280;62753;40.394;-80.022;2023-03-13T07:14:12;96710.22;;;9.37;33.49
74334;BME280;62753;40.394;-80.022;2023-03-13T07:16:38;96708.36;;;9.77;32.83
74334;BME280;62753;40.394;-80.022;2023-03-13T07:19:03;96705.65;;;9.48;32.66
74334;BME280;62753;40.394;-80.022;2023-03-13T07:21:29;96703.47;;;9.36;33.30
74334;BME280;62753;40.394;-80.022;2023-03-13T07:23:55;96701.43;;;9.03;34.68
74334;BME280;62753;40.394;-80.022;2023-03-13T07:26:20;96705.89;;;8.77;35.19
74334;BME280;62753;40.394;-80.022;2023-03-13T07:28:46;96702.40;;;8.64;34.85
74334;BME280;62753;40.394;-80.022;2023-03-13T07:31:13;96702.06;;;8.75;35.14
74334;BME280;62753;40.394;-80.022;2023-03-13T07:33:37;96703.80;;;8.74;35.77
74334;BME280;62753;40.394;-80.022;2023-03-13T07:36:03;96701.23;;;9.05;35.62
74334;BME280;62753;40.394;-80.022;2023-03-13T07:38:28;96701.55;;;8.98;36.08
74334;BME280;62753;40.394;-80.022;2023-03-13T07:40:55;96701.57;;;8.56;36.88
74334;BME280;62753;40.394;-80.022;2023-03-13T07:43:21;96701.54;;;8.41;37.36
74334;BME280;62753;40.394;-80.022;2023-03-13T07:45:52;96696.79;;;8.72;37.48
74334;BME280;62753;40.394;-80.022;2023-03-13T07:48:10;96697.53;;;8.63;37.51
74334;BME280;62753;40.394;-80.022;2023-03-13T07:50:35;96698.78;;;8.45;37.59
74334;BME280;62753;40.394;-80.022;2023-03-13T07:53:00;96705.98;;;8.47;37.84
74334;BME280;62753;40.394;-80.022;2023-03-13T07:55:27;96699.85;;;8.88;37.25
74334;BME280;62753;40.394;-80.022;2023-03-13T07:57:51;96707.93;;;8.68;38.00
74334;BME280;62753;40.394;-80.022;2023-03-13T08:00:17;96708.08;;;8.39;38.74
74334;BME280;62753;40.394;-80.022;2023-03-13T08:02:41;96713.24;;;7.68;39.64
74334;BME280;62753;40.394;-80.022;2023-03-13T08:05:12;96718.14;;;8.20;39.37
74334;BME280;62753;40.394;-80.022;2023-03-13T08:07:31;96717.43;;;8.15;38.92
74334;BME280;62753;40.394;-80.022;2023-03-13T08:10:03;96720.69;;;7.99;39.76
74334;BME280;62753;40.394;-80.022;2023-03-13T08:12:22;96720.82;;;8.29;38.82
74334;BME280;62753;40.394;-80.022;2023-03-13T08:14:47;96719.67;;;8.20;38.70
74334;BME280;62753;40.394;-80.022;2023-03-13T08:17:13;96715.74;;;7.16;40.85
74334;BME280;62753;40.394;-80.022;2023-03-13T08:19:42;96718.01;;;7.77;40.51
74334;BME280;62753;40.394;-80.022;2023-03-13T08:22:03;96724.40;;;7.91;39.99
74334;BME280;62753;40.394;-80.022;2023-03-13T08:24:29;96723.37;;;7.93;40.05
74334;BME280;62753;40.394;-80.022;2023-03-13T08:26:55;96723.14;;;8.16;39.39
74334;BME280;62753;40.394;-80.022;2023-03-13T08:29:21;96723.97;;;7.88;39.98
74334;BME280;62753;40.394;-80.022;2023-03-13T08:31:46;96719.44;;;7.64;40.51
74334;BME280;62753;40.394;-80.022;2023-03-13T08:34:11;96720.78;;;7.67;40.75
74334;BME280;62753;40.394;-80.022;2023-03-13T08:36:37;96724.73;;;7.61;40.03
74334;BME280;62753;40.394;-80.022;2023-03-13T08:39:09;96727.88;;;7.98;39.88
74334;BME280;62753;40.394;-80.022;2023-03-13T08:41:30;96725.55;;;8.43;38.46
74334;BME280;62753;40.394;-80.022;2023-03-13T08:43:54;96725.61;;;8.46;38.18
74334;BME280;62753;40.394;-80.022;2023-03-13T08:46:19;96724.13;;;8.39;38.60
74334;BME280;62753;40.394;-80.022;2023-03-13T08:48:47;96727.20;;;8.06;39.07
74334;BME280;62753;40.394;-80.022;2023-03-13T08:51:11;96729.86;;;8.29;39.92
74334;BME280;62753;40.394;-80.022;2023-03-13T08:53:37;96726.85;;;7.69;40.53
74334;BME280;62753;40.394;-80.022;2023-03-13T08:56:01;96728.06;;;7.70;40.84
74334;BME280;62753;40.394;-80.022;2023-03-13T08:58:26;96736.35;;;8.04;40.03
74334;BME280;62753;40.394;-80.022;2023-03-13T09:00:52;96740.42;;;8.26;39.59
74334;BME280;62753;40.394;-80.022;2023-03-13T09:03:17;96734.81;;;7.69;40.37
74334;BME280;62753;40.394;-80.022;2023-03-13T09:05:43;96742.22;;;7.40;40.49
74334;BME280;62753;40.394;-80.022;2023-03-13T09:08:08;96749.58;;;8.06;39.80
74334;BME280;62753;40.394;-80.022;2023-03-13T09:10:38;96744.21;;;7.76;40.35
74334;BME280;62753;40.394;-80.022;2023-03-13T09:12:59;96749.71;;;7.91;39.95
74334;BME280;62753;40.394;-80.022;2023-03-13T09:15:24;96754.62;;;7.82;39.82
74334;BME280;62753;40.394;-80.022;2023-03-13T09:17:50;96758.63;;;8.51;38.89
74334;BME280;62753;40.394;-80.022;2023-03-13T09:20:15;96760.58;;;8.13;39.26
74334;BME280;62753;40.394;-80.022;2023-03-13T09:22:40;96762.59;;;8.01;39.59
74334;BME280;62753;40.394;-80.022;2023-03-13T09:25:06;96762.59;;;7.57;40.67
74334;BME280;62753;40.394;-80.022;2023-03-13T09:27:30;96766.70;;;7.20;41.65
74334;BME280;62753;40.394;-80.022;2023-03-13T09:29:57;96766.07;;;6.96;41.62
74334;BME280;62753;40.394;-80.022;2023-03-13T09:32:21;96763.16;;;7.35;41.71
74334;BME280;62753;40.394;-80.022;2023-03-13T09:34:47;96764.57;;;6.88;42.28
74334;BME280;62753;40.394;-80.022;2023-03-13T09:37:12;96767.14;;;6.81;41.27
74334;BME280;62753;40.394;-80.022;2023-03-13T09:39:37;96769.93;;;7.16;41.66
74334;BME280;62753;40.394;-80.022;2023-03-13T09:42:11;96768.61;;;7.67;40.75
74334;BME280;62753;40.394;-80.022;2023-03-13T09:44:31;96769.92;;;6.56;42.42
74334;BME280;62753;40.394;-80.022;2023-03-13T09:46:59;96770.42;;;7.11;41.54
74334;BME280;62753;40.394;-80.022;2023-03-13T09:49:29;96775.12;;;6.85;43.05
74334;BME280;62753;40.394;-80.022;2023-03-13T09:51:55;96777.13;;;7.27;42.16
74334;BME280;62753;40.394;-80.022;2023-03-13T09:54:21;96777.55;;;6.73;42.55
74334;BME280;62753;40.394;-80.022;2023-03-13T09:56:41;96778.94;;;7.39;42.00
74334;BME280;62753;40.394;-80.022;2023-03-13T09:59:10;96776.89;;;6.96;41.96
74334;BME280;62753;40.394;-80.022;2023-03-13T10:01:30;96779.91;;;7.64;41.17
74334;BME280;62753;40.394;-80.022;2023-03-13T10:04:01;96785.04;;;8.25;40.40
74334;BME280;62753;40.394;-80.022;2023-03-13T10:06:21;96784.53;;;7.72;40.34
74334;BME280;62753;40.394;-80.022;2023-03-13T10:08:44;96789.98;;;8.06;40.01
74334;BME280;62753;40.394;-80.022;2023-03-13T10:11:13;96789.38;;;7.71;40.22
74334;BME280;62753;40.394;-80.022;2023-03-13T10:13:40;96790.79;;;7.69;40.42
74334;BME280;62753;40.394;-80.022;2023-03-13T10:16:04;96790.76;;;6.88;42.70
74334;BME280;62753;40.394;-80.022;2023-03-13T10:18:26;96791.65;;;6.10;44.29
74334;BME280;62753;40.394;-80.022;2023-03-13T10:20:55;96787.51;;;6.50;43.10
74334;BME280;62753;40.394;-80.022;2023-03-13T10:23:23;96786.57;;;7.18;41.64
74334;BME280;62753;40.394;-80.022;2023-03-13T10:25:43;96786.87;;;7.68;41.39
74334;BME280;62753;40.394;-80.022;2023-03-13T10:28:11;96789.51;;;7.74;40.40
74334;BME280;62753;40.394;-80.022;2023-03-13T10:30:35;96793.33;;;8.06;40.50
74334;BME280;62753;40.394;-80.022;2023-03-13T10:33:00;96793.33;;;7.91;40.20
74334;BME280;62753;40.394;-80.022;2023-03-13T10:35:31;96795.78;;;8.49;39.78
74334;BME280;62753;40.394;-80.022;2023-03-13T10:37:50;96791.56;;;7.81;40.42
74334;BME280;62753;40.394;-80.022;2023-03-13T10:40:21;96788.20;;;7.51;41.55
74334;BME280;62753;40.394;-80.022;2023-03-13T10:42:43;96791.44;;;7.71;40.52
74334;BME280;62753;40.394;-80.022;2023-03-13T10:45:13;96794.95;;;7.74;40.48
74334;BME280;62753;40.394;-80.022;2023-03-13T10:47:33;96794.37;;;7.82;40.77
74334;BME280;62753;40.394;-80.022;2023-03-13T10:49:58;96796.49;;;7.33;41.24
74334;BME280;62753;40.394;-80.022;2023-03-13T10:52:32;96801.56;;;7.71;40.77
74334;BME280;62753;40.394;-80.022;2023-03-13T10:54:48;96800.96;;;7.41;41.55
74334;BME280;62753;40.394;-80.022;2023-03-13T10:57:24;96807.69;;;7.18;42.16
74334;BME280;62753;40.394;-80.022;2023-03-13T10:59:42;96805.16;;;7.14;41.83
74334;BME280;62753;40.394;-80.022;2023-03-13T11:04:32;96803.39;;;7.26;41.89
74334;BME280;62753;40.394;-80.022;2023-03-13T11:07:01;96803.94;;;8.15;40.23
74334;BME280;62753;40.394;-80.022;2023-03-13T11:09:21;96808.86;;;7.71;40.69
74334;BME280;62753;40.394;-80.022;2023-03-13T11:11:49;96810.06;;;7.35;40.72
74334;BME280;62753;40.394;-80.022;2023-03-13T11:14:15;96808.35;;;6.95;42.02
74334;BME280;62753;40.394;-80.022;2023-03-13T11:16:43;96807.99;;;7.29;40.91
74334;BME280;62753;40.394;-80.022;2023-03-13T11:19:18;96810.06;;;6.45;42.52
74334;BME280;62753;40.394;-80.022;2023-03-13T11:21:36;96812.66;;;6.87;42.35
74334;BME280;62753;40.394;-80.022;2023-03-13T11:24:00;96812.53;;;6.12;44.52
74334;BME280;62753;40.394;-80.022;2023-03-13T11:26:28;96814.85;;;6.36;43.74
74334;BME280;62753;40.394;-80.022;2023-03-13T11:28:51;96812.99;;;6.69;42.64
74334;BME280;62753;40.394;-80.022;2023-03-13T11:31:14;96813.94;;;7.20;42.54
74334;BME280;62753;40.394;-80.022;2023-03-13T11:33:43;96817.50;;;7.02;42.16
74334;BME280;62753;40.394;-80.022;2023-03-13T11:36:08;96818.49;;;7.19;41.89
74334;BME280;62753;40.394;-80.022;2023-03-13T11:38:33;96822.62;;;6.95;41.29
74334;BME280;62753;40.394;-80.022;2023-03-13T11:41:02;96823.63;;;6.55;42.54
74334;BME280;62753;40.394;-80.022;2023-03-13T11:43:29;96823.95;;;6.04;43.69
74334;BME280;62753;40.394;-80.022;2023-03-13T11:45:57;96825.98;;;6.81;42.43
74334;BME280;62753;40.394;-80.022;2023-03-13T11:48:15;96824.14;;;7.03;41.90
74334;BME280;62753;40.394;-80.022;2023-03-13T11:50:41;96826.50;;;7.52;41.19
74334;BME280;62753;40.394;-80.022;2023-03-13T11:53:14;96830.14;;;7.56;39.74
74334;BME280;62753;40.394;-80.022;2023-03-13T11:58:00;96829.16;;;7.13;40.99
74334;BME280;62753;40.394;-80.022;2023-03-13T12:00:22;96831.43;;;7.26;40.26
74334;BME280;62753;40.394;-80.022;2023-03-13T12:02:46;96833.29;;;7.24;40.23
74334;BME280;62753;40.394;-80.022;2023-03-13T12:05:10;96835.44;;;6.91;41.16
74334;BME280;62753;40.394;-80.022;2023-03-13T12:07:35;96833.61;;;7.21;40.60
74334;BME280;62753;40.394;-80.022;2023-03-13T12:10:01;96836.84;;;6.91;41.16
74334;BME280;62753;40.394;-80.022;2023-03-13T12:12:34;96842.90;;;6.86;41.00
74334;BME280;62753;40.394;-80.022;2023-03-13T12:14:52;96849.80;;;6.60;41.85
74334;BME280;62753;40.394;-80.022;2023-03-13T12:17:20;96849.73;;;6.08;41.82
74334;BME280;62753;40.394;-80.022;2023-03-13T12:19:46;96857.79;;;7.02;41.75
74334;BME280;62753;40.394;-80.022;2023-03-13T12:22:13;96862.88;;;6.59;41.47
74334;BME280;62753;40.394;-80.022;2023-03-13T12:24:34;96865.99;;;7.10;41.75
74334;BME280;62753;40.394;-80.022;2023-03-13T12:26:58;96869.98;;;6.86;41.57
74334;BME280;62753;40.394;-80.022;2023-03-13T12:29:29;96871.78;;;7.40;40.56
74334;BME280;62753;40.394;-80.022;2023-03-13T12:31:51;96875.24;;;6.97;41.79
74334;BME280;62753;40.394;-80.022;2023-03-13T12:34:15;96878.73;;;6.83;41.65
74334;BME280;62753;40.394;-80.022;2023-03-13T12:36:40;96879.68;;;7.31;41.37
74334;BME280;62753;40.394;-80.022;2023-03-13T12:39:13;96878.08;;;7.91;39.83
74334;BME280;62753;40.394;-80.022;2023-03-13T12:41:30;96880.32;;;8.29;39.08
74334;BME280;62753;40.394;-80.022;2023-03-13T12:43:53;96881.32;;;7.39;39.44